sensor_id;sensor_type;location;lat;lon;timestamp;pressure;altitude;pressure_sealevel;temperature;humidity
3917;BME280;1973;50.518;7.318;2023-10-31T00:02:08;99069.69;;;14.29;100.00
3917;BME280;1973;50.518;7.318;2023-10-31T00:04:35;99079.38;;;14.27;100.00
3917;BME280;1973;50.518;7.318;2023-10-31T00:07:01;99080.50;;;14.21;100.00
3917;BME280;1973;50.518;7.318;2023-10-31T00:09:33;99082.75;;;14.13;100.00
3917;BME280;1973;50.518;7.318;2023-10-31T00:12:00;99079.72;;;14.05;100.00
3917;BME280;1973;50.518;7.318;2023-10-31T00:14:27;99078.34;;;13.97;100.00
3917;BME280;1973;50.518;7.318;2023-10-31T00:17:00;99083.91;;;13.87;100.00
3917;BME280;1973;50.518;7.318;2023-10-31T00:19:26;99093.34;;;13.76;100.00
3917;BME280;1973;50.518;7.318;2023-10-31T00:21:53;99089.19;;;13.69;100.00
3917;BME280;1973;50.518;7.318;2023-10-31T00:24:19;99096.09;;;13.61;100.00
3917;BME280;1973;50.518;7.318;2023-10-31T00:26:46;99106.63;;;13.54;100.00
3917;BME280;1973;50.518;7.318;2023-10-31T00:29:12;99104.13;;;13.47;100.00
3917;BME280;1973;50.518;7.318;2023-10-31T00:31:40;99104.97;;;13.43;100.00
3917;BME280;1973;50.518;7.318;2023-10-31T00:34:07;99112.97;;;13.34;100.00
3917;BME280;1973;50.518;7.318;2023-10-31T00:36:34;99111.03;;;13.30;100.00
3917;BME280;1973;50.518;7.318;2023-10-31T00:39:02;99099.13;;;13.24;100.00
3917;BME280;1973;50.518;7.318;2023-10-31T00:41:30;99087.25;;;13.19;100.00
3917;BME280;1973;50.518;7.318;2023-10-31T00:43:56;99099.41;;;13.12;100.00
3917;BME280;1973;50.518;7.318;2023-10-31T00:46:23;99097.72;;;13.06;100.00
3917;BME280;1973;50.518;7.318;2023-10-31T00:48:49;99101.56;;;13.00;100.00
3917;BME280;1973;50.518;7.318;2023-10-31T00:51:16;99105.69;;;12.93;100.00
3917;BME280;1973;50.518;7.318;2023-10-31T00:53:42;99109.28;;;12.88;100.00
3917;BME280;1973;50.518;7.318;2023-10-31T00:56:09;99103.72;;;12.83;100.00
3917;BME280;1973;50.518;7.318;2023-10-31T00:58:35;99105.66;;;12.78;100.00
3917;BME280;1973;50.518;7.318;2023-10-31T01:01:02;99104.53;;;12.74;100.00
3917;BME280;1973;50.518;7.318;2023-10-31T01:03:29;99108.09;;;12.69;100.00
3917;BME280;1973;50.518;7.318;2023-10-31T01:05:55;99111.41;;;12.66;100.00
3917;BME280;1973;50.518;7.318;2023-10-31T01:08:22;99119.13;;;12.64;100.00
3917;BME280;1973;50.518;7.318;2023-10-31T01:10:49;99125.75;;;12.63;100.00
3917;BME280;1973;50.518;7.318;2023-10-31T01:13:15;99121.06;;;12.63;100.00
3917;BME280;1973;50.518;7.318;2023-10-31T01:15:42;99126.00;;;12.61;100.00
3917;BME280;1973;50.518;7.318;2023-10-31T01:18:08;99136.81;;;12.63;100.00
3917;BME280;1973;50.518;7.318;2023-10-31T01:20:35;99151.69;;;12.62;100.00
3917;BME280;1973;50.518;7.318;2023-10-31T01:23:02;99137.91;;;12.62;100.00
3917;BME280;1973;50.518;7.318;2023-10-31T01:25:28;99140.09;;;12.60;100.00
3917;BME280;1973;50.518;7.318;2023-10-31T01:27:55;99141.75;;;12.61;100.00
3917;BME280;1973;50.518;7.318;2023-10-31T01:30:21;99141.19;;;12.59;100.00
3917;BME280;1973;50.518;7.318;2023-10-31T01:32:48;99139.78;;;12.56;100.00
3917;BME280;1973;50.518;7.318;2023-10-31T01:35:15;99138.97;;;12.56;100.00
3917;BME280;1973;50.518;7.318;2023-10-31T01:37:41;99153.34;;;12.58;100.00
3917;BME280;1973;50.518;7.318;2023-10-31T01:40:12;99153.91;;;12.60;100.00
3917;BME280;1973;50.518;7.318;2023-10-31T01:42:38;99161.63;;;12.58;100.00
3917;BME280;1973;50.518;7.318;2023-10-31T01:45:05;99157.75;;;12.59;100.00
3917;BME280;1973;50.518;7.318;2023-10-31T01:47:33;99164.66;;;12.61;100.00
3917;BME280;1973;50.518;7.318;2023-10-31T01:50:00;99167.16;;;12.63;100.00
3917;BME280;1973;50.518;7.318;2023-10-31T01:52:27;99173.53;;;12.63;100.00
3917;BME280;1973;50.518;7.318;2023-10-31T01:54:54;99173.53;;;12.63;100.00
3917;BME280;1973;50.518;7.318;2023-10-31T01:57:21;99173.25;;;12.65;100.00
3917;BME280;1973;50.518;7.318;2023-10-31T01:59:48;99173.81;;;12.67;100.00
3917;BME280;1973;50.518;7.318;2023-10-31T02:02:15;99184.56;;;12.68;100.00
3917;BME280;1973;50.518;7.318;2023-10-31T02:04:42;99176.03;;;12.70;100.00
3917;BME280;1973;50.518;7.318;2023-10-31T02:07:08;99177.13;;;12.69;100.00
3917;BME280;1973;50.518;7.318;2023-10-31T02:09:35;99174.63;;;12.67;100.00
3917;BME280;1973;50.518;7.318;2023-10-31T02:12:02;99180.13;;;12.67;100.00
3917;BME280;1973;50.518;7.318;2023-10-31T02:14:28;99177.66;;;12.66;100.00
3917;BME280;1973;50.518;7.318;2023-10-31T02:16:55;99176.00;;;12.65;100.00
3917;BME280;1973;50.518;7.318;2023-10-31T02:19:22;99179.84;;;12.64;100.00
3917;BME280;1973;50.518;7.318;2023-10-31T02:21:48;99177.09;;;12.59;100.00
3917;BME280;1973;50.518;7.318;2023-10-31T02:24:15;99180.66;;;12.54;100.00
3917;BME280;1973;50.518;7.318;2023-10-31T02:26:41;99176.50;;;12.52;100.00
3917;BME280;1973;50.518;7.318;2023-10-31T02:29:08;99178.13;;;12.48;100.00
3917;BME280;1973;50.518;7.318;2023-10-31T02:31:34;99178.94;;;12.43;100.00
3917;BME280;1973;50.518;7.318;2023-10-31T02:34:01;99180.84;;;12.38;100.00
3917;BME280;1973;50.518;7.318;2023-10-31T02:36:28;99187.72;;;12.35;100.00
3917;BME280;1973;50.518;7.318;2023-10-31T02:38:54;99191.25;;;12.31;100.00
3917;BME280;1973;50.518;7.318;2023-10-31T02:41:21;99188.50;;;12.26;100.00
3917;BME280;1973;50.518;7.318;2023-10-31T02:43:47;99182.09;;;12.20;100.00
3917;BME280;1973;50.518;7.318;2023-10-31T02:46:14;99188.16;;;12.17;100.00
3917;BME280;1973;50.518;7.318;2023-10-31T02:48:42;99184.53;;;12.11;100.00
3917;BME280;1973;50.518;7.318;2023-10-31T02:51:08;99191.69;;;12.07;100.00
3917;BME280;1973;50.518;7.318;2023-10-31T02:53:35;99194.91;;;11.99;100.00
3917;BME280;1973;50.518;7.318;2023-10-31T02:56:03;99199.84;;;11.92;100.00
3917;BME280;1973;50.518;7.318;2023-10-31T02:58:32;99195.34;;;11.86;100.00
3917;BME280;1973;50.518;7.318;2023-10-31T03:00:58;99198.34;;;11.80;100.00
3917;BME280;1973;50.518;7.318;2023-10-31T03:03:25;99204.63;;;11.75;100.00
3917;BME280;1973;50.518;7.318;2023-10-31T03:05:51;99210.66;;;11.72;100.00
3917;BME280;1973;50.518;7.318;2023-10-31T03:08:18;99213.38;;;11.67;100.00
3917;BME280;1973;50.518;7.318;2023-10-31T03:10:48;99213.91;;;11.64;100.00
3917;BME280;1973;50.518;7.318;2023-10-31T03:13:17;99216.59;;;11.59;100.00
3917;BME280;1973;50.518;7.318;2023-10-31T03:15:45;99218.22;;;11.55;100.00
3917;BME280;1973;50.518;7.318;2023-10-31T03:18:12;99215.16;;;11.51;100.00
3917;BME280;1973;50.518;7.318;2023-10-31T03:20:43;99228.63;;;11.48;100.00
3917;BME280;1973;50.518;7.318;2023-10-31T03:23:13;99235.19;;;11.42;100.00
3917;BME280;1973;50.518;7.318;2023-10-31T03:25:40;99236.78;;;11.38;100.00
3917;BME280;1973;50.518;7.318;2023-10-31T03:28:19;99235.63;;;11.34;100.00
3917;BME280;1973;50.518;7.318;2023-10-31T03:30:48;99241.66;;;11.31;100.00
3917;BME280;1973;50.518;7.318;2023-10-31T03:33:15;99242.16;;;11.28;100.00
3917;BME280;1973;50.518;7.318;2023-10-31T03:35:45;99243.28;;;11.27;100.00
3917;BME280;1973;50.518;7.318;2023-10-31T03:38:12;99238.84;;;11.26;100.00
3917;BME280;1973;50.518;7.318;2023-10-31T03:40:39;99244.34;;;11.26;100.00
3917;BME280;1973;50.518;7.318;2023-10-31T03:43:05;99245.19;;;11.26;100.00
3917;BME280;1973;50.518;7.318;2023-10-31T03:45:32;99250.69;;;11.26;100.00
3917;BME280;1973;50.518;7.318;2023-10-31T03:47:59;99257.28;;;11.25;100.00
3917;BME280;1973;50.518;7.318;2023-10-31T03:50:25;99245.44;;;11.24;100.00
3917;BME280;1973;50.518;7.318;2023-10-31T03:52:53;99249.03;;;11.25;100.00
3917;BME280;1973;50.518;7.318;2023-10-31T03:55:19;99255.38;;;11.26;100.00
3917;BME280;1973;50.518;7.318;2023-10-31T03:57:46;99247.66;;;11.28;100.00
3917;BME280;1973;50.518;7.318;2023-10-31T04:00:13;99265.88;;;11.29;100.00
3917;BME280;1973;50.518;7.318;2023-10-31T04:02:39;99269.72;;;11.28;100.00
3917;BME280;1973;50.518;7.318;2023-10-31T04:05:07;99277.97;;;11.28;100.00
3917;BME280;1973;50.518;7.318;2023-10-31T04:07:33;99275.53;;;11.31;100.00
3917;BME280;1973;50.518;7.318;2023-10-31T04:10:00;99271.97;;;11.31;100.00
3917;BME280;1973;50.518;7.318;2023-10-31T04:12:26;99268.69;;;11.34;100.00
3917;BME280;1973;50.518;7.318;2023-10-31T04:14:53;99268.41;;;11.35;100.00
3917;BME280;1973;50.518;7.318;2023-10-31T04:17:19;99271.75;;;11.37;100.00
3917;BME280;1973;50.518;7.318;2023-10-31T04:19:46;99269.84;;;11.38;100.00
3917;BME280;1973;50.518;7.318;2023-10-31T04:22:13;99262.13;;;11.40;100.00
3917;BME280;1973;50.518;7.318;2023-10-31T04:24:39;99273.16;;;11.40;100.00
3917;BME280;1973;50.518;7.318;2023-10-31T04:27:06;99286.69;;;11.41;100.00
3917;BME280;1973;50.518;7.318;2023-10-31T04:29:33;99282.03;;;11.42;100.00
3917;BME280;1973;50.518;7.318;2023-10-31T04:32:00;99284.78;;;11.42;100.00
3917;BME280;1973;50.518;7.318;2023-10-31T04:34:26;99279.81;;;11.44;100.00
3917;BME280;1973;50.518;7.318;2023-10-31T04:36:53;99275.97;;;11.45;100.00
3917;BME280;1973;50.518;7.318;2023-10-31T04:39:22;99276.81;;;11.45;100.00
3917;BME280;1973;50.518;7.318;2023-10-31T04:41:48;99299.66;;;11.46;100.00
3917;BME280;1973;50.518;7.318;2023-10-31T04:44:15;99296.66;;;11.47;100.00
3917;BME280;1973;50.518;7.318;2023-10-31T04:46:43;99296.66;;;11.47;100.00
3917;BME280;1973;50.518;7.318;2023-10-31T04:49:09;99299.19;;;11.49;100.00
3917;BME280;1973;50.518;7.318;2023-10-31T04:51:37;99292.56;;;11.50;100.00
3917;BME280;1973;50.518;7.318;2023-10-31T04:54:04;99304.72;;;11.54;100.00
3917;BME280;1973;50.518;7.318;2023-10-31T04:56:31;99292.63;;;11.55;100.00
3917;BME280;1973;50.518;7.318;2023-10-31T04:58:57;99291.53;;;11.56;100.00
3917;BME280;1973;50.518;7.318;2023-10-31T05:01:24;99307.56;;;11.59;100.00
3917;BME280;1973;50.518;7.318;2023-10-31T05:03:51;99305.63;;;11.59;100.00
3917;BME280;1973;50.518;7.318;2023-10-31T05:06:36;99314.97;;;11.58;100.00
3917;BME280;1973;50.518;7.318;2023-10-31T05:09:02;99320.25;;;11.60;100.00
3917;BME280;1973;50.518;7.318;2023-10-31T05:11:29;99313.63;;;11.61;100.00
3917;BME280;1973;50.518;7.318;2023-10-31T05:13:55;99322.47;;;11.63;100.00
3917;BME280;1973;50.518;7.318;2023-10-31T05:16:22;99321.97;;;11.66;100.00
3917;BME280;1973;50.518;7.318;2023-10-31T05:18:50;99326.94;;;11.69;100.00
3917;BME280;1973;50.518;7.318;2023-10-31T05:21:20;99323.09;;;11.70;100.00
3917;BME280;1973;50.518;7.318;2023-10-31T05:23:50;99325.63;;;11.71;100.00
3917;BME280;1973;50.518;7.318;2023-10-31T05:26:16;99326.47;;;11.72;100.00
3917;BME280;1973;50.518;7.318;2023-10-31T05:28:43;99330.06;;;11.73;100.00
3917;BME280;1973;50.518;7.318;2023-10-31T05:31:09;99335.31;;;11.74;100.00
3917;BME280;1973;50.518;7.318;2023-10-31T05:33:36;99340.00;;;11.74;100.00
3917;BME280;1973;50.518;7.318;2023-10-31T05:36:03;99335.03;;;11.76;100.00
3917;BME280;1973;50.518;7.318;2023-10-31T05:38:29;99347.75;;;11.77;100.00
3917;BME280;1973;50.518;7.318;2023-10-31T05:40:56;99340.31;;;11.77;100.00
3917;BME280;1973;50.518;7.318;2023-10-31T05:43:22;99343.06;;;11.77;100.00
3917;BME280;1973;50.518;7.318;2023-10-31T05:45:49;99352.16;;;11.78;100.00
3917;BME280;1973;50.518;7.318;2023-10-31T05:48:15;99353.50;;;11.75;100.00
3917;BME280;1973;50.518;7.318;2023-10-31T05:50:42;99362.38;;;11.77;100.00
3917;BME280;1973;50.518;7.318;2023-10-31T05:53:09;99354.66;;;11.79;100.00
3917;BME280;1973;50.518;7.318;2023-10-31T05:55:38;99359.16;;;11.85;100.00
3917;BME280;1973;50.518;7.318;2023-10-31T05:58:05;99360.88;;;11.91;100.00
3917;BME280;1973;50.518;7.318;2023-10-31T06:00:32;99351.81;;;11.96;100.00
3917;BME280;1973;50.518;7.318;2023-10-31T06:02:59;99358.19;;;12.01;100.00
3917;BME280;1973;50.518;7.318;2023-10-31T06:05:25;99356.34;;;12.07;100.00
3917;BME280;1973;50.518;7.318;2023-10-31T06:07:52;99355.81;;;12.10;100.00
3917;BME280;1973;50.518;7.318;2023-10-31T06:10:18;99363.84;;;12.11;100.00
3917;BME280;1973;50.518;7.318;2023-10-31T06:12:45;99356.44;;;12.17;100.00
3917;BME280;1973;50.518;7.318;2023-10-31T06:15:11;99362.25;;;12.20;100.00
3917;BME280;1973;50.518;7.318;2023-10-31T06:17:38;99364.78;;;12.22;100.00
3917;BME280;1973;50.518;7.318;2023-10-31T06:20:09;99362.31;;;12.26;100.00
3917;BME280;1973;50.518;7.318;2023-10-31T06:22:36;99371.97;;;12.28;100.00
3917;BME280;1973;50.518;7.318;2023-10-31T06:25:03;99375.06;;;12.32;100.00
3917;BME280;1973;50.518;7.318;2023-10-31T06:27:29;99377.56;;;12.33;100.00
3917;BME280;1973;50.518;7.318;2023-10-31T06:29:56;99384.47;;;12.36;100.00
3917;BME280;1973;50.518;7.318;2023-10-31T06:32:42;99387.22;;;12.36;100.00
3917;BME280;1973;50.518;7.318;2023-10-31T06:35:09;99385.06;;;12.38;100.00
3917;BME280;1973;50.518;7.318;2023-10-31T06:37:35;99382.84;;;12.40;100.00
3917;BME280;1973;50.518;7.318;2023-10-31T06:40:03;99399.41;;;12.40;100.00
3917;BME280;1973;50.518;7.318;2023-10-31T06:42:30;99401.34;;;12.39;100.00
3917;BME280;1973;50.518;7.318;2023-10-31T06:44:57;99403.53;;;12.37;100.00
3917;BME280;1973;50.518;7.318;2023-10-31T06:47:23;99404.38;;;12.38;100.00
3917;BME280;1973;50.518;7.318;2023-10-31T06:49:50;99406.31;;;12.37;100.00
3917;BME280;1973;50.518;7.318;2023-10-31T06:52:16;99418.19;;;12.38;100.00
3917;BME280;1973;50.518;7.318;2023-10-31T06:54:43;99413.75;;;12.37;100.00
3917;BME280;1973;50.518;7.318;2023-10-31T06:57:10;99415.66;;;12.36;100.00
3917;BME280;1973;50.518;7.318;2023-10-31T06:59:36;99418.97;;;12.33;100.00
3917;BME280;1973;50.518;7.318;2023-10-31T07:02:03;99426.72;;;12.36;100.00
3917;BME280;1973;50.518;7.318;2023-10-31T07:04:30;99440.03;;;12.44;100.00
3917;BME280;1973;50.518;7.318;2023-10-31T07:06:56;99437.38;;;12.54;100.00
3917;BME280;1973;50.518;7.318;2023-10-31T07:09:25;99442.13;;;12.64;100.00
3917;BME280;1973;50.518;7.318;2023-10-31T07:11:52;99447.19;;;12.72;100.00
3917;BME280;1973;50.518;7.318;2023-10-31T07:14:19;99439.19;;;12.71;100.00
3917;BME280;1973;50.518;7.318;2023-10-31T07:16:47;99452.72;;;12.72;100.00
3917;BME280;1973;50.518;7.318;2023-10-31T07:19:16;99448.84;;;12.73;100.00
3917;BME280;1973;50.518;7.318;2023-10-31T07:21:43;99458.22;;;12.72;100.00
3917;BME280;1973;50.518;7.318;2023-10-31T07:24:09;99456.59;;;12.71;100.00
3917;BME280;1973;50.518;7.318;2023-10-31T07:26:36;99460.16;;;12.72;100.00
3917;BME280;1973;50.518;7.318;2023-10-31T07:29:03;99458.28;;;12.77;100.00
3917;BME280;1973;50.518;7.318;2023-10-31T07:31:29;99462.13;;;12.76;100.00
3917;BME280;1973;50.518;7.318;2023-10-31T07:33:56;99464.38;;;12.79;100.00
3917;BME280;1973;50.518;7.318;2023-10-31T07:36:22;99460.78;;;12.79;100.00
3917;BME280;1973;50.518;7.318;2023-10-31T07:38:49;99460.53;;;12.80;100.00
3917;BME280;1973;50.518;7.318;2023-10-31T07:41:16;99465.50;;;12.83;100.00
3917;BME280;1973;50.518;7.318;2023-10-31T07:43:42;99473.53;;;12.85;100.00
3917;BME280;1973;50.518;7.318;2023-10-31T07:46:09;99470.50;;;12.86;100.00
3917;BME280;1973;50.518;7.318;2023-10-31T07:48:35;99469.41;;;12.87;100.00
3917;BME280;1973;50.518;7.318;2023-10-31T07:51:02;99469.41;;;12.87;100.00
3917;BME280;1973;50.518;7.318;2023-10-31T07:53:29;99479.38;;;12.88;100.00
3917;BME280;1973;50.518;7.318;2023-10-31T07:55:55;99486.28;;;12.91;100.00
3917;BME280;1973;50.518;7.318;2023-10-31T07:58:22;99495.72;;;12.95;100.00
3917;BME280;1973;50.518;7.318;2023-10-31T08:00:48;99490.50;;;12.98;100.00
3917;BME280;1973;50.518;7.318;2023-10-31T08:03:15;99495.25;;;13.03;100.00
3917;BME280;1973;50.518;7.318;2023-10-31T08:05:41;99505.22;;;13.04;100.00
3917;BME280;1973;50.518;7.318;2023-10-31T08:08:08;99511.28;;;13.06;100.00
3917;BME280;1973;50.518;7.318;2023-10-31T08:10:35;99515.72;;;13.07;100.00
3917;BME280;1973;50.518;7.318;2023-10-31T08:13:02;99511.53;;;13.04;100.00
3917;BME280;1973;50.518;7.318;2023-10-31T08:15:28;99530.38;;;13.07;100.00
3917;BME280;1973;50.518;7.318;2023-10-31T08:17:55;99525.94;;;13.06;100.00
3917;BME280;1973;50.518;7.318;2023-10-31T08:20:21;99532.03;;;13.08;100.00
3917;BME280;1973;50.518;7.318;2023-10-31T08:22:48;99532.66;;;13.10;100.00
3917;BME280;1973;50.518;7.318;2023-10-31T08:25:15;99541.50;;;13.12;100.00
3917;BME280;1973;50.518;7.318;2023-10-31T08:27:41;99540.97;;;13.15;100.00
3917;BME280;1973;50.518;7.318;2023-10-31T08:30:08;99545.97;;;13.19;100.00
3917;BME280;1973;50.518;7.318;2023-10-31T08:32:35;99549.31;;;13.21;100.00
3917;BME280;1973;50.518;7.318;2023-10-31T08:35:01;99550.13;;;13.21;100.00
3917;BME280;1973;50.518;7.318;2023-10-31T08:37:28;99542.69;;;13.22;100.00
3917;BME280;1973;50.518;7.318;2023-10-31T08:39:54;99554.88;;;13.26;100.00
3917;BME280;1973;50.518;7.318;2023-10-31T08:42:21;99546.06;;;13.29;100.00
3917;BME280;1973;50.518;7.318;2023-10-31T08:44:48;99559.94;;;13.34;100.00
3917;BME280;1973;50.518;7.318;2023-10-31T08:47:14;99562.72;;;13.39;100.00
3917;BME280;1973;50.518;7.318;2023-10-31T08:49:41;99564.66;;;13.38;100.00
3917;BME280;1973;50.518;7.318;2023-10-31T08:52:07;99572.16;;;13.43;100.00
3917;BME280;1973;50.518;7.318;2023-10-31T08:54:34;99571.66;;;13.51;100.00
3917;BME280;1973;50.518;7.318;2023-10-31T08:57:00;99568.13;;;13.60;100.00
3917;BME280;1973;50.518;7.318;2023-10-31T08:59:27;99580.09;;;13.71;100.00
3917;BME280;1973;50.518;7.318;2023-10-31T09:01:53;99576.84;;;13.79;100.00
3917;BME280;1973;50.518;7.318;2023-10-31T09:04:20;99581.88;;;13.87;100.00
3917;BME280;1973;50.518;7.318;2023-10-31T09:06:46;99589.69;;;13.95;100.00
3917;BME280;1973;50.518;7.318;2023-10-31T09:09:13;99587.44;;;13.92;100.00
3917;BME280;1973;50.518;7.318;2023-10-31T09:11:40;99585.56;;;14.03;100.00
3917;BME280;1973;50.518;7.318;2023-10-31T09:14:06;99580.94;;;14.13;100.00
3917;BME280;1973;50.518;7.318;2023-10-31T09:16:33;99586.25;;;14.25;100.00
3917;BME280;1973;50.518;7.318;2023-10-31T09:18:59;99589.84;;;14.31;100.00
3917;BME280;1973;50.518;7.318;2023-10-31T09:21:27;99593.22;;;14.33;100.00
3917;BME280;1973;50.518;7.318;2023-10-31T09:23:54;99589.97;;;14.46;100.00
3917;BME280;1973;50.518;7.318;2023-10-31T09:26:20;99595.78;;;14.49;100.00
3917;BME280;1973;50.518;7.318;2023-10-31T09:28:47;99599.97;;;14.57;100.00
3917;BME280;1973;50.518;7.318;2023-10-31T09:31:17;99598.91;;;14.63;100.00
3917;BME280;1973;50.518;7.318;2023-10-31T09:33:45;99608.31;;;14.62;100.00
3917;BME280;1973;50.518;7.318;2023-10-31T09:36:12;99606.13;;;14.69;100.00
3917;BME280;1973;50.518;7.318;2023-10-31T09:38:41;99597.28;;;14.77;100.00
3917;BME280;1973;50.518;7.318;2023-10-31T09:41:08;99616.72;;;14.87;100.00
3917;BME280;1973;50.518;7.318;2023-10-31T09:43:35;99599.03;;;15.14;100.00
3917;BME280;1973;50.518;7.318;2023-10-31T09:46:01;99604.84;;;15.17;100.00
3917;BME280;1973;50.518;7.318;2023-10-31T09:48:28;99611.81;;;15.25;100.00
3917;BME280;1973;50.518;7.318;2023-10-31T09:50:56;99607.91;;;15.31;100.00
3917;BME280;1973;50.518;7.318;2023-10-31T09:53:23;99611.25;;;15.33;100.00
3917;BME280;1973;50.518;7.318;2023-10-31T09:55:51;99624.00;;;15.34;100.00
3917;BME280;1973;50.518;7.318;2023-10-31T09:58:17;99620.66;;;15.22;100.00
3917;BME280;1973;50.518;7.318;2023-10-31T10:00:44;99623.97;;;15.14;100.00
3917;BME280;1973;50.518;7.318;2023-10-31T10:03:11;99634.47;;;14.96;100.00
3917;BME280;1973;50.518;7.318;2023-10-31T10:05:38;99626.72;;;14.98;100.00
3917;BME280;1973;50.518;7.318;2023-10-31T10:08:06;99656.66;;;14.96;100.00
3917;BME280;1973;50.518;7.318;2023-10-31T10:10:34;99634.47;;;14.96;100.00
3917;BME280;1973;50.518;7.318;2023-10-31T10:13:03;99630.59;;;15.02;100.00
3917;BME280;1973;50.518;7.318;2023-10-31T10:15:30;99628.44;;;15.15;100.00
3917;BME280;1973;50.518;7.318;2023-10-31T10:17:56;99658.31;;;15.02;100.00
3917;BME280;1973;50.518;7.318;2023-10-31T10:20:23;99646.94;;;15.04;100.00
3917;BME280;1973;50.518;7.318;2023-10-31T10:22:50;99654.72;;;15.02;100.00
3917;BME280;1973;50.518;7.318;2023-10-31T10:25:17;99659.97;;;14.98;100.00
3917;BME280;1973;50.518;7.318;2023-10-31T10:27:47;99653.88;;;15.01;100.00
3917;BME280;1973;50.518;7.318;2023-10-31T10:30:15;99657.25;;;15.24;100.00
3917;BME280;1973;50.518;7.318;2023-10-31T10:32:42;99663.94;;;15.38;100.00
3917;BME280;1973;50.518;7.318;2023-10-31T10:35:09;99660.13;;;15.74;100.00
3917;BME280;1973;50.518;7.318;2023-10-31T10:37:37;99655.66;;;16.08;100.00
3917;BME280;1973;50.518;7.318;2023-10-31T10:40:06;99647.88;;;16.26;100.00
3917;BME280;1973;50.518;7.318;2023-10-31T10:42:40;99650.31;;;16.37;100.00
3917;BME280;1973;50.518;7.318;2023-10-31T10:45:10;99649.47;;;16.47;100.00
3917;BME280;1973;50.518;7.318;2023-10-31T10:47:39;99642.28;;;16.31;100.00
3917;BME280;1973;50.518;7.318;2023-10-31T10:50:06;99652.88;;;16.14;100.00
3917;BME280;1973;50.518;7.318;2023-10-31T10:52:56;99645.38;;;16.14;100.00
3917;BME280;1973;50.518;7.318;2023-10-31T10:55:28;99656.19;;;16.26;100.00
3917;BME280;1973;50.518;7.318;2023-10-31T10:58:05;99653.16;;;16.12;100.00
3917;BME280;1973;50.518;7.318;2023-10-31T11:00:34;99662.91;;;15.94;100.00
3917;BME280;1973;50.518;7.318;2023-10-31T11:03:01;99665.38;;;15.86;100.00
3917;BME280;1973;50.518;7.318;2023-10-31T11:05:28;99679.28;;;15.66;100.00
3917;BME280;1973;50.518;7.318;2023-10-31T11:07:56;99684.22;;;15.43;100.00
3917;BME280;1973;50.518;7.318;2023-10-31T11:10:25;99667.00;;;15.46;100.00
3917;BME280;1973;50.518;7.318;2023-10-31T11:12:53;99662.31;;;15.47;100.00
3917;BME280;1973;50.518;7.318;2023-10-31T11:15:20;99672.00;;;15.39;100.00
3917;BME280;1973;50.518;7.318;2023-10-31T11:17:47;99677.88;;;15.53;100.00
3917;BME280;1973;50.518;7.318;2023-10-31T11:20:16;99659.00;;;15.50;100.00
3917;BME280;1973;50.518;7.318;2023-10-31T11:22:44;99656.78;;;15.57;100.00
3917;BME280;1973;50.518;7.318;2023-10-31T11:25:18;99672.31;;;15.63;100.00
3917;BME280;1973;50.518;7.318;2023-10-31T11:28:10;99674.56;;;15.81;100.00
3917;BME280;1973;50.518;7.318;2023-10-31T11:30:37;99657.31;;;16.20;100.00
3917;BME280;1973;50.518;7.318;2023-10-31T11:33:03;99654.97;;;16.77;100.00
3917;BME280;1973;50.518;7.318;2023-10-31T11:35:38;99651.91;;;17.28;100.00
3917;BME280;1973;50.518;7.318;2023-10-31T11:38:07;99650.94;;;17.47;99.33
3917;BME280;1973;50.518;7.318;2023-10-31T11:41:17;99661.19;;;17.52;97.64
3917;BME280;1973;50.518;7.318;2023-10-31T11:43:35;99664.88;;;17.81;86.92
3917;BME280;1973;50.518;7.318;2023-10-31T11:46:02;99656.00;;;17.79;91.14
3917;BME280;1973;50.518;7.318;2023-10-31T11:48:49;99651.09;;;18.00;79.06
3917;BME280;1973;50.518;7.318;2023-10-31T11:51:18;99656.25;;;18.12;83.99
3917;BME280;1973;50.518;7.318;2023-10-31T11:53:45;99660.09;;;18.44;82.50
3917;BME280;1973;50.518;7.318;2023-10-31T11:56:12;99656.81;;;18.66;77.86
3917;BME280;1973;50.518;7.318;2023-10-31T11:58:38;99641.84;;;19.05;76.39
3917;BME280;1973;50.518;7.318;2023-10-31T12:01:07;99653.84;;;19.24;68.91
3917;BME280;1973;50.518;7.318;2023-10-31T12:06:05;99657.31;;;19.16;65.12
3917;BME280;1973;50.518;7.318;2023-10-31T12:08:38;99654.22;;;18.99;60.44
3917;BME280;1973;50.518;7.318;2023-10-31T12:11:14;99646.88;;;18.84;65.23
3917;BME280;1973;50.518;7.318;2023-10-31T12:14:01;99647.22;;;19.20;61.44
3917;BME280;1973;50.518;7.318;2023-10-31T12:16:30;99640.06;;;19.14;63.68
3917;BME280;1973;50.518;7.318;2023-10-31T12:19:02;99659.59;;;19.14;61.87
3917;BME280;1973;50.518;7.318;2023-10-31T12:21:44;99648.16;;;18.91;60.12
3917;BME280;1973;50.518;7.318;2023-10-31T12:24:15;99630.88;;;18.89;66.04
3917;BME280;1973;50.518;7.318;2023-10-31T12:26:42;99642.75;;;19.19;63.89
3917;BME280;1973;50.518;7.318;2023-10-31T12:29:16;99637.94;;;19.24;61.70
3917;BME280;1973;50.518;7.318;2023-10-31T12:31:50;99642.16;;;19.22;59.20
3917;BME280;1973;50.518;7.318;2023-10-31T12:34:21;99637.63;;;19.26;62.35
3917;BME280;1973;50.518;7.318;2023-10-31T12:36:50;99634.09;;;19.39;62.04
3917;BME280;1973;50.518;7.318;2023-10-31T12:39:21;99638.25;;;19.41;59.07
3917;BME280;1973;50.518;7.318;2023-10-31T12:41:48;99637.66;;;19.44;59.98
3917;BME280;1973;50.518;7.318;2023-10-31T12:44:21;99641.91;;;19.37;60.34
3917;BME280;1973;50.518;7.318;2023-10-31T12:46:49;99648.88;;;19.21;61.47
3917;BME280;1973;50.518;7.318;2023-10-31T12:49:17;99638.44;;;19.08;62.90
3917;BME280;1973;50.518;7.318;2023-10-31T12:52:00;99630.44;;;19.43;61.62
3917;BME280;1973;50.518;7.318;2023-10-31T12:54:38;99621.66;;;19.69;59.06
3917;BME280;1973;50.518;7.318;2023-10-31T12:57:06;99619.16;;;19.67;60.47
3917;BME280;1973;50.518;7.318;2023-10-31T12:59:35;99618.09;;;19.63;59.77
3917;BME280;1973;50.518;7.318;2023-10-31T13:02:03;99616.81;;;19.56;60.42
3917;BME280;1973;50.518;7.318;2023-10-31T13:04:31;99629.34;;;19.39;59.46
3917;BME280;1973;50.518;7.318;2023-10-31T13:07:06;99638.06;;;19.14;56.00
3917;BME280;1973;50.518;7.318;2023-10-31T13:09:38;99633.75;;;18.84;58.99
3917;BME280;1973;50.518;7.318;2023-10-31T13:12:09;99641.09;;;18.75;60.06
3917;BME280;1973;50.518;7.318;2023-10-31T13:14:37;99637.97;;;18.29;60.69
3917;BME280;1973;50.518;7.318;2023-10-31T13:17:05;99632.03;;;18.12;61.53
3917;BME280;1973;50.518;7.318;2023-10-31T13:19:32;99631.44;;;17.86;63.66